Time;durP1;ratioP1;P1;durP2;ratioP2;P2;SDS_P1;SDS_P2;PMS_P1;PMS_P2;Temp;Humidity;BMP_temperature;BMP_pressure;BME280_temperature;BME280_humidity;BME280_pressure;Samples;Min_cycle;Max_cycle;Signal;HPM_P1;HPM_P2
2021/07/18 00:01:25;;;;;;;27.80;17.80;;;;;;;15.68;84.17;91281.19;4959524;28;20019;-88
2021/07/18 00:03:56;;;;;;;28.90;18.42;;;;;;;15.56;84.66;91275.34;4944509;28;20042;-88
2021/07/18 00:06:29;;;;;;;30.23;17.17;;;;;;;15.51;83.94;91269.28;4944223;28;20109;-89
2021/07/18 00:09:05;;;;;;;32.67;16.95;;;;;;;15.46;83.51;91268.78;4959943;28;20027;-88
2021/07/18 00:11:42;;;;;;;28.35;17.25;;;;;;;15.46;84.01;91274.03;4960080;28;20023;-89
2021/07/18 00:14:23;;;;;;;28.75;16.40;;;;;;;15.46;84.05;91279.28;4975478;28;20514;-87
2021/07/18 00:16:57;;;;;;;28.38;16.17;;;;;;;15.49;83.99;91278.59;4971218;28;20503;-88
2021/07/18 00:19:33;;;;;;;27.38;16.55;;;;;;;15.47;83.06;91275.53;4991174;28;20027;-88
2021/07/18 00:22:08;;;;;;;28.98;16.52;;;;;;;15.46;83.29;91289.78;4972667;28;20499;-88
2021/07/18 00:24:42;;;;;;;30.80;16.33;;;;;;;15.48;82.70;91292.84;4972143;28;20035;-89
2021/07/18 00:27:15;;;;;;;28.08;16.17;;;;;;;15.49;81.88;91268.84;4956190;28;20547;-88
2021/07/18 00:29:52;;;;;;;27.95;16.80;;;;;;;15.48;82.81;91292.84;4955919;28;20035;-88
2021/07/18 00:32:29;;;;;;;32.83;16.52;;;;;;;15.38;83.04;91280.28;4972068;28;20542;-89
2021/07/18 00:35:09;;;;;;;31.23;15.35;;;;;;;15.33;83.53;91280.53;4972299;28;20086;-88
2021/07/18 00:37:40;;;;;;;28.50;15.43;;;;;;;15.34;83.31;91271.59;4955814;28;20032;-88
2021/07/18 00:40:13;;;;;;;29.67;15.60;;;;;;;15.34;83.33;91276.84;4955330;28;20087;-88
2021/07/18 00:42:51;;;;;;;33.97;16.02;;;;;;;15.35;82.97;91273.84;4975125;28;20039;-88
2021/07/18 00:45:28;;;;;;;25.98;14.82;;;;;;;15.40;82.70;91281.44;4959040;28;20487;-89
2021/07/18 00:48:02;;;;;;;24.40;15.25;;;;;;;15.41;82.88;91279.59;4944035;28;20031;-89
2021/07/18 00:50:37;;;;;;;26.05;15.60;;;;;;;15.31;83.87;91275.66;4959292;28;20407;-89
2021/07/18 00:53:10;;;;;;;25.80;14.95;;;;;;;15.25;83.88;91266.53;4960437;28;20088;-89
2021/07/18 00:55:43;;;;;;;27.23;14.43;;;;;;;15.20;83.40;91270.22;4944483;28;20136;-88
2021/07/18 00:58:18;;;;;;;27.90;14.90;;;;;;;15.30;82.85;91268.91;4959587;28;20475;-88
2021/07/18 01:00:52;;;;;;;27.02;14.48;;;;;;;15.22;83.30;91270.59;4959297;28;20034;-88
2021/07/18 01:03:25;;;;;;;;;;;;;;;15.27;83.17;91272.97;4959611;28;20031;-89
2021/07/18 01:06:04;;;;;;;27.25;13.55;;;;;;;15.30;82.95;91255.75;4959155;28;19914;-88
2021/07/18 01:08:43;;;;;;;23.95;13.82;;;;;;;15.16;83.14;91266.75;4974476;28;20030;-88
2021/07/18 01:11:21;;;;;;;23.65;13.63;;;;;;;15.08;83.25;91254.59;4943330;28;20023;-87
2021/07/18 01:13:54;;;;;;;21.65;13.52;;;;;;;15.00;83.38;91245.06;4958860;28;20027;-88
2021/07/18 01:16:27;;;;;;;26.05;12.85;;;;;;;15.07;82.71;91238.09;4943310;28;20481;-88
2021/07/18 01:19:02;;;;;;;26.20;12.77;;;;;;;15.09;82.14;91232.50;4943479;28;20031;-89
2021/07/18 01:21:40;;;;;;;25.40;10.88;;;;;;;15.02;81.82;91243.63;4942671;28;20026;-88
2021/07/18 01:24:10;;;;;;;26.92;12.20;;;;;;;15.01;82.53;91246.59;4959194;28;20110;-88
2021/07/18 01:26:48;;;;;;;27.33;11.93;;;;;;;14.87;82.57;91233.94;4974723;28;20030;-88
2021/07/18 01:29:27;;;;;;;22.25;12.55;;;;;;;14.83;83.44;91241.75;5008452;28;20034;-89
2021/07/18 01:32:01;;;;;;;21.13;10.50;;;;;;;14.81;82.73;91236.09;4989348;28;20046;-89
2021/07/18 01:34:38;;;;;;;24.20;11.85;;;;;;;14.81;82.51;91235.34;4974276;28;20483;-89
2021/07/18 01:37:10;;;;;;;22.95;11.35;;;;;;;14.73;82.89;91231.06;4973987;28;20430;-88
2021/07/18 01:39:49;;;;;;;23.33;10.73;;;;;;;14.73;83.14;91238.94;4958076;28;20026;-89
2021/07/18 01:42:32;;;;;;;22.58;10.68;;;;;;;14.75;83.08;91236.72;4974148;28;20030;-88
2021/07/18 01:45:07;;;;;;;24.20;9.63;;;;;;;14.71;83.40;91234.03;4973990;28;20034;-89
2021/07/18 01:47:48;;;;;;;18.35;10.27;;;;;;;14.75;82.85;91232.22;4974334;28;20038;-89
2021/07/18 01:50:22;;;;;;;23.55;10.10;;;;;;;14.74;82.88;91229.97;4973729;28;20023;-88
2021/07/18 01:53:00;;;;;;;23.08;11.23;;;;;;;14.67;83.41;91230.59;5002566;28;20014;-89
2021/07/18 01:55:38;;;;;;;24.17;10.27;;;;;;;14.62;83.17;91217.72;4983403;28;20041;-89
2021/07/18 01:58:13;;;;;;;20.40;9.20;;;;;;;14.58;83.62;91212.41;4982389;28;20399;-88
2021/07/18 02:00:51;;;;;;;19.50;9.68;;;;;;;14.52;83.76;91220.91;4957663;28;20027;-87
2021/07/18 02:03:28;;;;;;;22.52;9.73;;;;;;;14.49;83.41;91219.72;4973746;28;20034;-89
2021/07/18 02:06:08;;;;;;;18.75;9.52;;;;;;;14.48;83.54;91223.41;4973829;28;20061;-88
2021/07/18 02:08:51;;;;;;;18.00;9.13;;;;;;;14.46;83.56;91230.13;4957561;28;20031;-89
2021/07/18 02:11:28;;;;;;;16.95;8.43;;;;;;;14.45;83.71;91228.59;4987735;28;20026;-88
2021/07/18 02:13:58;;;;;;;19.42;9.07;;;;;;;14.24;84.47;91221.81;4957392;28;20027;-88
2021/07/18 02:16:43;;;;;;;17.55;8.45;;;;;;;14.20;84.94;91228.81;4973268;28;20022;-89
2021/07/18 02:19:24;;;;;;;17.13;8.20;;;;;;;14.18;85.19;91231.03;4990579;28;20026;-87
2021/07/18 02:21:59;;;;;;;22.55;8.88;;;;;;;14.09;85.57;91225.97;4956608;28;20458;-89
2021/07/18 02:24:35;;;;;;;16.83;8.30;;;;;;;14.07;85.29;91235.28;4973126;28;20038;-89
2021/07/18 02:27:10;;;;;;;18.17;8.25;;;;;;;14.02;85.47;91236.28;4954082;28;20487;-89
2021/07/18 02:29:37;;;;;;;19.60;9.35;;;;;;;13.75;86.21;91219.63;4953788;28;20031;-88
2021/07/18 02:32:10;;;;;;;18.15;8.38;;;;;;;13.72;86.22;91230.00;4953766;28;20521;-88
2021/07/18 02:34:47;;;;;;;14.93;8.35;;;;;;;13.69;86.21;91231.44;4953922;28;20027;-89
2021/07/18 02:37:25;;;;;;;21.70;9.50;;;;;;;13.60;86.50;91222.97;4970738;28;20089;-88
2021/07/18 02:40:02;;;;;;;19.85;8.10;;;;;;;13.59;85.73;91232.69;4953583;28;20054;-88
2021/07/18 02:42:41;;;;;;;15.77;7.70;;;;;;;13.65;85.18;91240.31;4953914;28;20118;-88
2021/07/18 02:45:21;;;;;;;17.05;8.43;;;;;;;13.50;85.42;91234.75;4968464;28;20038;-89
2021/07/18 02:47:53;;;;;;;17.67;8.30;;;;;;;13.41;86.12;91225.53;4969813;28;20082;-88
2021/07/18 02:50:28;;;;;;;16.13;7.25;;;;;;;13.41;84.62;91228.13;4966448;28;20038;-88
2021/07/18 02:53:07;;;;;;;17.83;7.72;;;;;;;13.51;84.25;91235.50;4957306;28;20487;-88
2021/07/18 02:55:40;;;;;;;16.90;7.90;;;;;;;13.42;85.05;91237.50;4972765;28;20054;-88
2021/07/18 02:58:11;;;;;;;13.27;7.65;;;;;;;13.24;86.04;91240.44;4972710;28;20558;-88
2021/07/18 03:00:51;;;;;;;15.80;8.30;;;;;;;13.16;86.34;91236.84;4972314;28;20047;-88
2021/07/18 03:03:23;;;;;;;22.52;7.97;;;;;;;13.03;86.44;91227.53;4972615;28;20554;-89
2021/07/18 03:05:59;;;;;;;23.67;8.02;;;;;;;12.95;86.51;91232.94;4957225;28;20052;-89
2021/07/18 03:08:34;;;;;;;17.75;7.80;;;;;;;12.86;87.14;91241.69;4972929;28;20038;-89
2021/07/18 03:11:08;;;;;;;16.92;8.30;;;;;;;12.77;86.94;91237.69;4956083;28;20525;-88
2021/07/18 03:13:51;;;;;;;22.33;8.55;;;;;;;12.80;86.74;91239.66;5001748;23;20084;-86
2021/07/18 03:16:28;;;;;;;17.13;7.38;;;;;;;12.66;87.52;91234.78;5014342;28;20033;-86
2021/07/18 03:19:05;;;;;;;18.85;7.35;;;;;;;12.76;86.47;91223.88;5015177;28;20442;-87
2021/07/18 03:21:39;;;;;;;17.42;7.75;;;;;;;12.68;86.80;91227.38;5030487;28;20025;-89
2021/07/18 03:24:15;;;;;;;14.88;6.60;;;;;;;12.55;86.71;91223.28;5010979;28;20113;-87
2021/07/18 03:27:01;;;;;;;12.13;7.07;;;;;;;12.55;86.75;91223.28;5011053;28;20033;-87
2021/07/18 03:29:30;;;;;;;15.07;7.47;;;;;;;12.49;87.65;91229.84;5010720;28;20108;-87
2021/07/18 03:32:08;;;;;;;15.18;6.80;;;;;;;12.42;86.69;91230.41;5011974;28;20025;-87
2021/07/18 03:34:47;;;;;;;14.23;6.72;;;;;;;12.32;86.23;91231.59;5010875;28;20083;-87
2021/07/18 03:37:23;;;;;;;17.90;6.93;;;;;;;12.26;86.99;91232.94;4995125;28;20026;-87
2021/07/18 03:39:58;;;;;;;11.30;6.13;;;;;;;12.22;87.46;91228.69;5010641;28;20029;-87
2021/07/18 03:42:35;;;;;;;11.15;6.55;;;;;;;12.17;86.98;91230.44;5010418;28;20030;-87
2021/07/18 03:45:17;;;;;;;11.88;6.63;;;;;;;12.15;86.79;91231.84;4995309;28;20112;-87
2021/07/18 03:47:52;;;;;;;13.13;6.20;;;;;;;12.01;86.82;91232.19;4995516;28;20456;-87
2021/07/18 03:50:29;;;;;;;16.13;6.40;;;;;;;11.98;87.02;91232.88;4994609;28;20018;-87
2021/07/18 03:53:03;;;;;;;13.52;6.03;;;;;;;12.08;86.70;91242.09;4996290;28;20028;-87
2021/07/18 03:55:43;;;;;;;16.58;7.88;;;;;;;11.92;87.48;91239.41;5032958;28;20010;-89
2021/07/18 03:58:21;;;;;;;14.77;7.22;;;;;;;11.84;87.76;91235.06;5006343;28;20022;-88
2021/07/18 04:01:01;;;;;;;16.92;7.75;;;;;;;11.79;88.02;91238.59;5011133;28;20026;-86
2021/07/18 04:03:38;;;;;;;15.02;7.25;;;;;;;11.73;88.11;91232.84;5010990;28;20029;-87
2021/07/18 04:06:14;;;;;;;17.55;8.57;;;;;;;11.78;87.68;91242.31;5011709;28;20034;-86
2021/07/18 04:08:59;;;;;;;16.38;7.57;;;;;;;11.71;87.94;91239.47;4994825;28;20036;-87
2021/07/18 04:11:42;;;;;;;13.90;6.90;;;;;;;11.69;88.22;91241.66;5026932;28;20034;-87
2021/07/18 04:14:18;;;;;;;16.50;7.40;;;;;;;11.59;87.79;91237.63;4979337;28;20034;-87
2021/07/18 04:16:58;;;;;;;12.30;6.43;;;;;;;11.78;86.24;91252.00;4995282;28;20025;-86
2021/07/18 04:19:32;;;;;;;10.00;6.20;;;;;;;11.64;86.16;91236.66;5011785;28;20057;-87
2021/07/18 04:22:08;;;;;;;14.85;5.95;;;;;;;11.68;86.29;91232.31;4995380;28;20398;-87
2021/07/18 04:24:43;;;;;;;14.13;6.10;;;;;;;11.62;87.00;91236.19;5011869;28;20115;-86
2021/07/18 04:27:18;;;;;;;9.75;5.40;;;;;;;11.60;87.31;91241.00;5010893;28;20111;-86
2021/07/18 04:29:59;;;;;;;10.20;5.72;;;;;;;11.68;87.37;91238.28;5002802;28;20097;-87
2021/07/18 04:32:38;;;;;;;15.57;6.18;;;;;;;11.64;87.75;91239.25;5010555;28;20494;-87
2021/07/18 04:35:11;;;;;;;9.68;6.10;;;;;;;11.67;87.43;91243.84;4994630;28;20077;-86
2021/07/18 04:37:51;;;;;;;9.98;5.68;;;;;;;11.69;87.49;91249.47;4990967;28;20498;-87
2021/07/18 04:40:30;;;;;;;18.88;5.80;;;;;;;11.72;86.83;91246.97;4975290;28;20027;-86
2021/07/18 04:43:05;;;;;;;8.60;5.63;;;;;;;11.84;86.54;91246.25;4977002;28;20026;-87
2021/07/18 04:45:44;;;;;;;13.18;5.68;;;;;;;11.84;86.10;91248.88;4995646;28;20026;-87
2021/07/18 04:48:18;;;;;;;16.20;5.43;;;;;;;11.83;87.29;91251.75;4978725;28;20089;-87
2021/07/18 04:51:00;;;;;;;10.27;5.80;;;;;;;12.02;86.70;91252.03;4978470;28;20097;-87
2021/07/18 04:53:43;;;;;;;12.90;5.03;;;;;;;11.96;86.38;91256.69;5001561;28;20030;-89
2021/07/18 04:56:12;;;;;;;10.48;5.00;;;;;;;12.04;86.60;91246.47;5021411;28;20051;-89
2021/07/18 04:58:51;;;;;;;10.57;5.78;;;;;;;12.11;86.26;91247.44;5019375;28;20007;-89
2021/07/18 05:01:29;;;;;;;11.38;5.55;;;;;;;12.20;86.31;91249.94;4985966;28;20518;-87
2021/07/18 05:04:07;;;;;;;13.13;6.13;;;;;;;12.24;86.68;91258.63;4981924;28;20034;-88
2021/07/18 05:06:46;;;;;;;11.60;6.03;;;;;;;12.26;86.70;91259.06;4994170;28;20080;-87
2021/07/18 05:09:24;;;;;;;9.85;5.85;;;;;;;12.29;85.80;91258.41;4994349;28;20033;-86
2021/07/18 05:11:58;;;;;;;11.25;5.68;;;;;;;12.49;85.21;91261.97;4988898;28;20050;-87
2021/07/18 05:14:30;;;;;;;9.30;5.30;;;;;;;12.49;85.50;91250.75;4994694;28;20571;-87
2021/07/18 05:17:01;;;;;;;9.68;5.65;;;;;;;12.67;84.85;91257.22;4978299;28;20054;-87
2021/07/18 05:19:36;;;;;;;9.15;6.15;;;;;;;12.60;85.90;91262.25;4993359;28;20457;-87
2021/07/18 05:22:13;;;;;;;11.15;4.82;;;;;;;12.71;85.03;91263.31;5011035;28;20032;-86
2021/07/18 05:24:48;;;;;;;14.30;5.43;;;;;;;12.84;83.76;91259.56;5013019;28;20113;-85
2021/07/18 05:27:32;;;;;;;9.43;5.38;;;;;;;12.95;83.66;91256.47;4994502;28;20033;-87
2021/07/18 05:30:09;;;;;;;11.57;5.25;;;;;;;12.98;83.69;91255.81;4995885;28;20601;-87
2021/07/18 05:32:45;;;;;;;11.70;5.40;;;;;;;12.97;83.94;91249.03;5004690;28;20034;-87
2021/07/18 05:35:20;;;;;;;9.82;5.15;;;;;;;13.03;84.49;91263.41;5013456;28;20028;-87
2021/07/18 05:37:55;;;;;;;10.57;5.40;;;;;;;13.10;84.38;91248.66;4996737;28;20100;-87
2021/07/18 05:40:27;;;;;;;11.50;5.55;;;;;;;13.03;85.19;91252.94;5013451;28;20022;-87
2021/07/18 05:43:06;;;;;;;17.63;6.07;;;;;;;13.12;83.40;91243.09;4996660;28;20030;-87
2021/07/18 05:45:33;;;;;;;13.23;6.32;;;;;;;13.29;82.80;91239.44;5012730;28;20500;-88
2021/07/18 05:48:03;;;;;;;11.32;6.18;;;;;;;13.39;82.11;91234.47;5008853;28;20022;-87
2021/07/18 05:50:39;;;;;;;13.32;5.93;;;;;;;13.45;81.38;91237.59;5007402;28;20021;-88
2021/07/18 05:53:17;;;;;;;10.38;5.97;;;;;;;13.48;82.66;91223.06;5011850;28;20496;-87
2021/07/18 05:55:54;;;;;;;11.63;5.50;;;;;;;13.53;83.43;91228.84;4997106;28;20076;-87
2021/07/18 05:58:26;;;;;;;12.70;5.78;;;;;;;13.56;83.00;91217.66;5012464;28;20493;-87
2021/07/18 06:00:57;;;;;;;11.18;5.18;;;;;;;13.76;82.06;91228.97;4995842;28;20045;-87
2021/07/18 06:03:34;;;;;;;13.48;5.57;;;;;;;13.82;81.83;91224.25;4996348;28;20029;-87
2021/07/18 06:06:13;;;;;;;11.90;6.07;;;;;;;13.86;80.56;91225.09;5013375;28;20025;-88
2021/07/18 06:08:47;;;;;;;9.38;5.07;;;;;;;14.04;80.94;91225.50;5012177;28;20022;-87
2021/07/18 06:11:22;;;;;;;14.73;5.68;;;;;;;14.05;81.10;91227.00;5013254;28;20018;-88
2021/07/18 06:14:00;;;;;;;11.52;5.72;;;;;;;14.16;81.88;91230.59;4997241;28;20038;-89
2021/07/18 06:16:32;;;;;;;9.73;5.28;;;;;;;14.22;81.53;91221.38;5012989;28;20029;-88
2021/07/18 06:19:07;;;;;;;13.07;5.88;;;;;;;14.24;79.95;91224.44;5012128;28;20033;-88
2021/07/18 06:21:39;;;;;;;12.32;5.93;;;;;;;14.32;80.15;91217.47;4996216;28;20021;-87
2021/07/18 06:24:14;;;;;;;12.02;5.65;;;;;;;14.43;80.05;91220.31;5012370;28;20033;-87
2021/07/18 06:26:46;;;;;;;14.10;5.40;;;;;;;14.68;80.46;91212.97;5008219;28;20034;-86
2021/07/18 06:29:20;;;;;;;10.80;5.65;;;;;;;14.76;81.01;91218.00;4991707;28;20626;-87
2021/07/18 06:31:56;;;;;;;11.43;5.63;;;;;;;14.89;81.54;91217.88;4976073;28;20030;-87
2021/07/18 06:34:32;;;;;;;17.98;6.28;;;;;;;14.90;78.81;91214.13;4992857;28;20029;-87
2021/07/18 06:37:08;;;;;;;9.30;5.35;;;;;;;15.01;80.05;91220.34;4961155;28;20491;-87
2021/07/18 06:39:40;;;;;;;10.93;5.47;;;;;;;15.07;78.71;91214.47;4992424;28;20119;-87
2021/07/18 06:42:18;;;;;;;10.98;5.10;;;;;;;15.27;78.25;91225.72;4959948;28;20034;-87
2021/07/18 06:44:59;;;;;;;12.57;5.30;;;;;;;15.37;78.09;91224.38;4976506;28;20030;-88
2021/07/18 06:47:29;;;;;;;11.95;5.32;;;;;;;15.41;75.49;91219.19;4977979;28;20097;-88
2021/07/18 06:50:00;;;;;;;10.07;5.07;;;;;;;15.36;75.63;91216.84;5007274;28;20022;-88
2021/07/18 06:52:33;;;;;;;12.38;4.40;;;;;;;15.45;76.19;91222.63;5008013;28;20109;-86
2021/07/18 06:55:12;;;;;;;11.77;5.03;;;;;;;15.64;77.72;91230.44;4997248;28;20486;-88
2021/07/18 06:57:51;;;;;;;11.23;5.30;;;;;;;15.81;75.97;91225.84;5011538;28;20033;-88
2021/07/18 07:00:22;;;;;;;7.68;4.40;;;;;;;15.93;73.59;91225.66;5011202;28;20026;-87
2021/07/18 07:02:52;;;;;;;8.95;4.55;;;;;;;16.02;74.68;91228.81;5011596;28;20104;-88
2021/07/18 07:05:29;;;;;;;11.32;4.47;;;;;;;16.14;73.39;91228.59;4997658;28;20057;-88
2021/07/18 07:08:09;;;;;;;12.02;4.57;;;;;;;16.33;75.41;91229.63;4996870;28;20033;-88
2021/07/18 07:10:43;;;;;;;13.82;4.90;;;;;;;16.55;74.47;91234.06;5015013;28;20494;-87
2021/07/18 07:13:14;;;;;;;9.90;4.70;;;;;;;16.49;72.38;91232.84;5011956;28;20034;-87
2021/07/18 07:15:50;;;;;;;18.27;5.07;;;;;;;16.51;73.56;91229.88;4994657;28;20398;-88
2021/07/18 07:18:25;;;;;;;11.25;4.68;;;;;;;16.68;74.06;91235.34;4995224;28;20025;-88
2021/07/18 07:20:57;;;;;;;10.35;4.70;;;;;;;16.95;74.67;91235.31;5011173;28;20508;-87
2021/07/18 07:23:34;;;;;;;15.90;4.78;;;;;;;17.03;71.92;91234.28;5028811;28;20044;-88
2021/07/18 07:26:10;;;;;;;10.70;4.47;;;;;;;17.00;72.76;91224.47;5036454;28;20025;-88
2021/07/18 07:28:48;;;;;;;16.10;5.32;;;;;;;17.08;72.65;91220.78;5004051;28;20498;-86
2021/07/18 07:31:27;;;;;;;18.08;4.72;;;;;;;17.24;72.75;91222.44;4993341;28;20061;-87
2021/07/18 07:34:04;;;;;;;14.00;4.60;;;;;;;17.20;73.34;91225.78;4991138;28;20033;-87
2021/07/18 07:36:42;;;;;;;8.57;4.50;;;;;;;17.29;72.30;91224.78;4976339;28;20030;-87
2021/07/18 07:39:21;;;;;;;11.95;5.20;;;;;;;17.35;71.31;91218.03;4991765;28;20030;-85
2021/07/18 07:41:51;;;;;;;10.90;4.90;;;;;;;17.53;71.86;91221.63;4992374;28;20026;-88
2021/07/18 07:44:25;;;;;;;13.10;5.45;;;;;;;17.58;71.75;91226.53;4990997;28;20030;-87
2021/07/18 07:46:59;;;;;;;10.52;4.93;;;;;;;17.67;72.10;91229.66;4991371;28;20088;-87
2021/07/18 07:49:31;;;;;;;10.05;4.85;;;;;;;17.71;68.64;91221.03;4976329;28;20030;-87
2021/07/18 07:52:06;;;;;;;11.75;4.85;;;;;;;17.69;70.48;91221.38;4992340;28;20054;-87
2021/07/18 07:54:41;;;;;;;9.27;4.43;;;;;;;17.84;71.21;91217.75;4992415;28;20113;-87
2021/07/18 07:57:18;;;;;;;12.43;4.70;;;;;;;18.06;69.42;91223.22;4994335;28;20062;-87
2021/07/18 07:59:55;;;;;;;8.65;4.88;;;;;;;18.10;69.27;91224.00;5013161;28;20026;-88
2021/07/18 08:02:29;;;;;;;12.82;4.97;;;;;;;18.01;66.53;91226.91;4996152;28;20022;-87
2021/07/18 08:05:02;;;;;;;13.13;5.10;;;;;;;18.10;68.06;91218.72;4995530;28;20033;-87
2021/07/18 08:07:43;;;;;;;10.13;4.72;;;;;;;18.39;69.90;91219.66;5009711;28;20486;-87
2021/07/18 08:10:21;;;;;;;13.77;5.35;;;;;;;18.51;67.33;91218.56;5012362;28;20393;-86
2021/07/18 08:12:57;;;;;;;11.20;4.75;;;;;;;18.56;67.06;91226.91;5010036;28;20030;-86
2021/07/18 08:15:35;;;;;;;12.50;5.05;;;;;;;18.52;66.43;91220.84;5011167;28;20077;-87
2021/07/18 08:18:14;;;;;;;8.20;4.60;;;;;;;18.52;65.02;91223.50;5013657;28;20022;-87
2021/07/18 08:20:46;;;;;;;13.05;5.43;;;;;;;18.38;64.79;91218.13;5014530;28;20026;-88
2021/07/18 08:23:22;;;;;;;10.52;4.43;;;;;;;18.80;68.65;91230.06;5018347;28;20022;-87
2021/07/18 08:25:59;;;;;;;13.70;4.88;;;;;;;18.97;66.39;91224.09;4991764;28;20026;-88
2021/07/18 08:28:41;;;;;;;11.80;5.03;;;;;;;19.03;64.17;91219.97;4994125;28;20560;-87
2021/07/18 08:31:17;;;;;;;10.93;4.80;;;;;;;19.21;66.58;91225.31;5009925;28;20050;-87
2021/07/18 08:33:56;;;;;;;9.23;4.68;;;;;;;19.35;63.75;91219.31;4994620;28;20059;-88
2021/07/18 08:36:31;;;;;;;12.13;5.10;;;;;;;19.24;61.55;91214.00;4994441;28;20033;-88
2021/07/18 08:39:07;;;;;;;12.27;4.50;;;;;;;19.41;65.72;91217.81;4994823;28;20022;-87
2021/07/18 08:41:37;;;;;;;12.38;4.82;;;;;;;19.43;64.26;91212.91;4994792;28;20030;-87
2021/07/18 08:44:13;;;;;;;10.95;4.40;;;;;;;19.62;64.48;91217.09;4994345;28;20022;-87
2021/07/18 08:46:48;;;;;;;8.82;4.50;;;;;;;19.68;64.64;91209.56;4978263;28;20034;-87
2021/07/18 08:49:25;;;;;;;11.73;4.80;;;;;;;19.70;63.95;91216.00;4983851;28;20079;-87
2021/07/18 08:52:04;;;;;;;9.40;4.93;;;;;;;19.68;62.39;91220.13;4997693;28;20121;-87
2021/07/18 08:54:37;;;;;;;11.15;4.40;;;;;;;19.54;61.59;91221.63;4999351;28;20026;-88
2021/07/18 08:57:19;;;;;;;14.50;4.80;;;;;;;19.41;62.25;91220.47;4998190;28;20022;-87
2021/07/18 08:59:53;;;;;;;9.25;4.60;;;;;;;19.71;62.06;91222.78;5013481;28;20022;-87
2021/07/18 09:02:27;;;;;;;8.40;4.18;;;;;;;19.68;62.76;91215.63;5013005;28;20116;-87
2021/07/18 09:05:08;;;;;;;9.05;4.25;;;;;;;19.73;60.28;91217.13;4981074;28;20026;-88
2021/07/18 09:08:09;;;;;;;13.05;5.90;;;;;;;20.29;61.78;91226.19;5013041;28;20022;-87
2021/07/18 09:10:48;;;;;;;8.90;4.10;;;;;;;20.25;59.16;91220.16;5012666;28;20033;-88
2021/07/18 09:13:22;;;;;;;8.52;3.15;;;;;;;20.23;56.17;91227.72;5009008;23;20073;-87
2021/07/18 09:16:01;;;;;;;9.43;3.92;;;;;;;20.16;59.94;91223.19;4978134;28;20026;-86
2021/07/18 09:18:39;;;;;;;7.20;3.15;;;;;;;19.97;56.20;91229.63;4993547;28;20045;-88
2021/07/18 09:21:13;;;;;;;10.77;3.50;;;;;;;19.62;56.97;91227.69;4994954;28;20580;-87
2021/07/18 09:23:54;;;;;;;11.35;3.45;;;;;;;18.94;57.16;91227.50;4966406;28;20042;-86
2021/07/18 09:26:26;;;;;;;8.02;3.55;;;;;;;19.02;56.58;91225.63;4959804;28;20026;-87
2021/07/18 09:29:04;;;;;;;10.77;3.35;;;;;;;19.33;58.04;91227.63;4974867;28;20490;-88
2021/07/18 09:31:41;;;;;;;8.80;2.83;;;;;;;19.39;57.75;91220.06;4973429;28;20027;-89
2021/07/18 09:34:23;;;;;;;8.98;3.00;;;;;;;19.22;56.62;91220.78;4954864;28;20020;-88
2021/07/18 09:37:01;;;;;;;7.97;2.75;;;;;;;19.18;54.84;91223.41;4955404;28;20027;-88
2021/07/18 09:39:37;;;;;;;7.43;2.83;;;;;;;19.04;56.90;91218.84;4974023;28;20031;-88
2021/07/18 09:42:12;;;;;;;7.95;2.80;;;;;;;18.95;57.27;91223.72;4989538;28;20034;-88
2021/07/18 09:44:45;;;;;;;9.43;2.80;;;;;;;19.35;58.66;91224.59;4975999;28;20103;-89
2021/07/18 09:47:16;;;;;;;10.85;3.20;;;;;;;19.55;58.92;91219.72;4954883;28;20454;-88
2021/07/18 09:49:57;;;;;;;9.48;2.58;;;;;;;19.68;54.70;91212.22;4970128;28;20487;-88
2021/07/18 09:52:28;;;;;;;10.48;3.15;;;;;;;20.23;56.97;91212.59;4969370;28;20675;-88
2021/07/18 09:54:58;;;;;;;6.75;2.75;;;;;;;20.29;56.32;91212.97;4973999;28;20023;-89
2021/07/18 09:57:31;;;;;;;6.28;2.78;;;;;;;20.39;54.97;91214.84;4958163;28;20023;-88
2021/07/18 09:59:59;;;;;;;9.40;3.30;;;;;;;20.59;57.14;91219.75;4974355;28;20015;-88
2021/07/18 10:02:27;;;;;;;8.00;2.92;;;;;;;20.70;55.41;91213.28;4970335;28;20111;-88
2021/07/18 10:04:56;;;;;;;9.02;3.30;;;;;;;20.73;53.22;91217.06;4987648;28;20033;-88
2021/07/18 10:07:30;;;;;;;7.45;2.80;;;;;;;20.64;53.23;91224.66;4973385;28;20031;-89
2021/07/18 10:10:00;;;;;;;;;;;;;;;20.52;53.25;91213.31;4953502;28;20400;-89
2021/07/18 10:12:26;;;;;;;7.82;3.10;;;;;;;20.38;53.22;91208.03;4972729;28;19914;-88
2021/07/18 10:14:52;;;;;;;14.25;3.30;;;;;;;20.24;54.86;91214.09;4973358;28;20028;-89
2021/07/18 10:17:18;;;;;;;6.85;3.13;;;;;;;19.46;54.80;91211.41;4957022;28;20077;-88
2021/07/18 10:19:45;;;;;;;8.45;2.97;;;;;;;19.48;56.06;91211.78;4957206;28;20023;-87
2021/07/18 10:22:13;;;;;;;10.18;3.03;;;;;;;19.45;56.45;91207.25;4973232;28;20015;-86
2021/07/18 10:24:40;;;;;;;10.15;3.13;;;;;;;19.45;55.15;91208.00;4973894;28;20121;-86
2021/07/18 10:27:12;;;;;;;12.32;3.10;;;;;;;19.40;56.50;91210.25;4973150;28;20487;-88
2021/07/18 10:29:45;;;;;;;9.90;3.17;;;;;;;19.48;55.80;91201.22;4971396;28;20023;-87
2021/07/18 10:32:17;;;;;;;9.98;3.17;;;;;;;19.81;56.94;91202.78;4971400;28;20027;-87
2021/07/18 10:34:59;;;;;;;8.73;3.00;;;;;;;20.29;56.88;91205.03;4973310;28;20031;-87
2021/07/18 10:37:43;;;;;;;8.07;3.22;;;;;;;20.24;56.38;91210.69;4972447;28;20031;-87
2021/07/18 10:40:24;;;;;;;7.57;2.90;;;;;;;20.46;54.65;91201.59;4987960;28;20023;-87
2021/07/18 10:43:01;;;;;;;12.65;3.13;;;;;;;20.29;54.46;91213.72;4973511;28;20035;-86
2021/07/18 10:45:32;;;;;;;9.15;3.50;;;;;;;20.62;57.29;91213.69;4954197;28;20109;-86
2021/07/18 10:48:09;;;;;;;14.38;3.28;;;;;;;20.40;53.37;91205.00;4937875;29;20031;-88
2021/07/18 10:50:49;;;;;;;11.88;3.25;;;;;;;20.61;53.00;91198.94;4969463;28;20099;-87
2021/07/18 10:53:29;;;;;;;8.25;3.20;;;;;;;20.66;53.49;91207.25;4953413;28;20030;-87
2021/07/18 10:56:02;;;;;;;7.55;3.00;;;;;;;20.66;50.64;91211.78;4969937;28;20392;-88
2021/07/18 10:58:52;;;;;;;9.47;3.37;;;;;;;21.01;53.89;91211.66;4969701;28;20035;-88
2021/07/18 11:01:33;;;;;;;9.60;2.75;;;;;;;20.92;53.91;91208.69;4954247;28;20023;-87
2021/07/18 11:03:59;;;;;;;11.52;3.17;;;;;;;21.06;55.03;91212.41;4965108;28;20046;-88
2021/07/18 11:06:30;;;;;;;7.72;2.97;;;;;;;21.00;53.57;91214.72;4971344;28;20065;-88
2021/07/18 11:09:13;;;;;;;9.93;3.45;;;;;;;20.65;50.83;91205.00;4955809;28;20399;-87
2021/07/18 11:11:46;;;;;;;10.93;3.22;;;;;;;20.53;54.21;91214.84;4970921;28;20173;-87
2021/07/18 11:14:39;;;;;;;11.80;3.90;;;;;;;20.65;55.39;91213.69;4958390;28;20031;-88
2021/07/18 11:17:10;;;;;;;10.10;2.92;;;;;;;20.60;51.58;91206.13;4976563;28;20034;-88
2021/07/18 11:19:56;;;;;;;10.70;3.03;;;;;;;20.83;53.05;91205.69;4974765;28;20077;-88
2021/07/18 11:23:00;;;;;;;9.13;3.30;;;;;;;20.71;51.55;91219.34;4974169;28;20033;-87
2021/07/18 11:25:51;;;;;;;9.13;2.97;;;;;;;20.35;54.43;91213.31;4986661;28;20015;-87
2021/07/18 11:28:41;;;;;;;8.52;3.83;;;;;;;20.56;55.42;91212.56;4986821;28;20027;-88
2021/07/18 11:31:18;;;;;;;7.80;2.70;;;;;;;20.51;51.68;91213.72;4991758;28;20014;-88
2021/07/18 11:33:52;;;;;;;6.55;2.65;;;;;;;20.48;52.38;91212.56;4991367;28;20375;-88
2021/07/18 11:36:32;;;;;;;9.38;2.92;;;;;;;20.52;51.06;91213.31;4988082;28;20105;-88
2021/07/18 11:39:20;;;;;;;6.63;3.10;;;;;;;20.42;51.71;91208.78;4987164;28;20031;-88
2021/07/18 11:41:46;;;;;;;8.15;2.85;;;;;;;20.25;53.40;91204.28;4954658;28;20034;-87
2021/07/18 11:44:21;;;;;;;8.35;3.10;;;;;;;20.12;55.01;91203.91;4973395;28;20031;-88
2021/07/18 11:46:54;;;;;;;6.80;3.28;;;;;;;20.39;51.50;91212.22;4970850;28;20710;-87
2021/07/18 11:49:26;;;;;;;7.07;3.17;;;;;;;20.60;52.50;91208.78;4970386;28;20027;-88
2021/07/18 11:52:00;;;;;;;13.70;3.15;;;;;;;20.90;51.22;91202.25;4973551;28;20114;-88
2021/07/18 11:54:30;;;;;;;8.75;3.13;;;;;;;21.11;52.30;91198.75;4958520;28;20133;-88
2021/07/18 11:56:57;;;;;;;9.10;2.97;;;;;;;21.41;53.88;91204.31;4974831;28;20034;-88
2021/07/18 11:59:28;;;;;;;8.05;2.90;;;;;;;21.72;53.50;91191.22;4974292;28;20085;-88
2021/07/18 12:02:02;;;;;;;8.68;2.50;;;;;;;21.55;48.06;91200.81;4974736;28;20038;-88
2021/07/18 12:04:29;;;;;;;9.60;3.03;;;;;;;21.33;50.98;91194.84;4975446;28;20046;-88
2021/07/18 12:07:03;;;;;;;12.50;3.20;;;;;;;21.52;52.01;91211.44;4974754;28;20031;-88